createdAt,value
2023-02-25T00:02:06.528Z,3.91
2023-02-25T00:04:35.316Z,3.95
2023-02-25T00:07:02.895Z,3.97
2023-02-25T00:09:30.706Z,4.01
2023-02-25T00:11:57.949Z,3.94
2023-02-25T00:14:25.199Z,4.06
2023-02-25T00:16:56.345Z,3.98
2023-02-25T00:19:24.839Z,3.99
2023-02-25T00:21:52.091Z,3.91
2023-02-25T00:24:19.316Z,3.90
2023-02-25T00:26:46.710Z,3.87
2023-02-25T00:29:13.998Z,3.88
2023-02-25T00:31:41.481Z,3.93
2023-02-25T00:34:08.967Z,3.96
2023-02-25T00:36:36.328Z,3.90
2023-02-25T00:39:03.626Z,3.93
2023-02-25T00:41:30.964Z,3.90
2023-02-25T00:43:59.976Z,3.83
2023-02-25T00:46:31.684Z,3.84
2023-02-25T00:48:59.643Z,3.82
2023-02-25T00:51:29.685Z,3.73
2023-02-25T00:53:57.559Z,3.60
2023-02-25T00:56:26.067Z,3.47
2023-02-25T00:58:53.966Z,3.46
2023-02-25T01:01:24.625Z,3.37
2023-02-25T01:03:53.351Z,3.34
2023-02-25T01:06:21.545Z,3.38
2023-02-25T01:08:49.372Z,3.50
2023-02-25T01:11:21.198Z,3.39
2023-02-25T01:13:49.665Z,3.49
2023-02-25T01:16:23.684Z,3.54
2023-02-25T01:18:55.728Z,3.59
2023-02-25T01:21:30.668Z,3.61
2023-02-25T01:24:04.114Z,3.64
2023-02-25T01:26:34.452Z,3.67
2023-02-25T01:29:01.837Z,3.60
2023-02-25T01:31:31.945Z,3.58
2023-02-25T01:34:00.774Z,3.56
2023-02-25T01:36:28.678Z,3.59
2023-02-25T01:38:56.565Z,3.60
2023-02-25T01:41:27.613Z,3.60
2023-02-25T01:44:17.069Z,3.66
2023-02-25T01:46:46.371Z,3.53
2023-02-25T01:49:18.443Z,3.47
2023-02-25T01:51:47.700Z,3.50
2023-02-25T01:54:15.379Z,3.50
2023-02-25T01:56:48.231Z,3.56
2023-02-25T01:59:16.453Z,3.54
2023-02-25T02:01:44.595Z,3.60
2023-02-25T02:04:13.120Z,3.60
2023-02-25T02:06:42.601Z,3.59
2023-02-25T02:09:13.401Z,3.52
2023-02-25T02:11:40.848Z,3.49
2023-02-25T02:14:11.227Z,3.56
2023-02-25T02:16:55.322Z,3.47
2023-02-25T02:19:38.022Z,3.46
2023-02-25T02:22:40.473Z,3.48
2023-02-25T02:25:48.021Z,3.56
2023-02-25T02:28:32.688Z,3.45
2023-02-25T02:31:36.959Z,3.47
2023-02-25T02:34:22.442Z,3.45
2023-02-25T02:37:01.752Z,3.53
2023-02-25T02:39:44.952Z,3.50
2023-02-25T02:42:18.283Z,3.48
2023-02-25T02:44:59.124Z,3.49
2023-02-25T02:47:32.734Z,3.46
2023-02-25T02:50:26.929Z,3.35
2023-02-25T02:52:56.631Z,3.35
2023-02-25T02:55:33.317Z,3.36
2023-02-25T02:58:30.214Z,3.40
2023-02-25T03:01:02.776Z,3.39
2023-02-25T03:03:39.058Z,3.33
2023-02-25T03:06:11.863Z,3.26
2023-02-25T03:08:44.959Z,3.32
2023-02-25T03:11:12.479Z,3.35
2023-02-25T03:13:39.832Z,3.36
2023-02-25T03:16:11.186Z,3.35
2023-02-25T03:18:47.798Z,3.37
2023-02-25T03:21:20.459Z,3.35
2023-02-25T03:23:48.935Z,3.34
2023-02-25T03:26:30.967Z,3.40
2023-02-25T03:28:58.599Z,3.29
2023-02-25T03:31:30.000Z,3.37
2023-02-25T03:34:03.654Z,3.35
2023-02-25T03:36:43.191Z,3.18
2023-02-25T03:39:21.746Z,3.28
2023-02-25T03:41:53.465Z,3.19
2023-02-25T03:44:27.001Z,3.26
2023-02-25T03:46:54.638Z,3.23
2023-02-25T03:49:35.181Z,3.23
2023-02-25T03:52:05.246Z,3.11
2023-02-25T03:54:32.466Z,3.20
2023-02-25T03:56:59.717Z,3.11
2023-02-25T03:59:28.202Z,3.13
2023-02-25T04:01:56.440Z,3.21
2023-02-25T04:04:23.749Z,3.18
2023-02-25T04:06:51.029Z,3.19
2023-02-25T04:09:18.545Z,3.17
2023-02-25T04:11:45.799Z,3.17
2023-02-25T04:14:12.972Z,3.03
2023-02-25T04:16:40.198Z,3.02
2023-02-25T04:19:07.416Z,3.01
2023-02-25T04:21:36.509Z,2.97
2023-02-25T04:24:07.084Z,2.94
2023-02-25T04:26:35.692Z,2.95
2023-02-25T04:29:03.817Z,2.75
2023-02-25T04:31:31.408Z,2.88
2023-02-25T04:33:58.739Z,2.89
2023-02-25T04:36:36.147Z,2.78
2023-02-25T04:39:05.935Z,2.76
2023-02-25T04:41:35.380Z,2.75
2023-02-25T04:44:05.599Z,2.80
2023-02-25T04:46:34.489Z,2.76
2023-02-25T04:49:01.814Z,2.70
2023-02-25T04:51:29.319Z,2.77
2023-02-25T04:53:56.860Z,2.80
2023-02-25T04:56:24.598Z,2.76
2023-02-25T04:58:52.256Z,2.74
2023-02-25T05:01:19.461Z,2.74
2023-02-25T05:03:47.135Z,2.78
2023-02-25T05:06:14.534Z,2.75
2023-02-25T05:08:41.763Z,2.69
2023-02-25T05:11:08.989Z,2.61
2023-02-25T05:13:36.212Z,2.63
2023-02-25T05:16:05.704Z,2.55
2023-02-25T05:18:34.880Z,2.65
2023-02-25T05:21:02.131Z,2.61
2023-02-25T05:23:29.357Z,2.60
2023-02-25T05:25:58.784Z,2.62
2023-02-25T05:28:25.929Z,2.49
2023-02-25T05:30:55.260Z,2.51
2023-02-25T05:33:23.394Z,2.63
2023-02-25T05:35:51.088Z,2.49
2023-02-25T05:38:18.331Z,2.58
2023-02-25T05:40:45.511Z,2.60
2023-02-25T05:43:12.756Z,2.51
2023-02-25T05:45:40.020Z,2.47
2023-02-25T05:48:07.249Z,2.38
2023-02-25T05:50:41.050Z,2.32
2023-02-25T05:53:09.843Z,2.29
2023-02-25T05:55:44.454Z,2.11
2023-02-25T05:58:11.720Z,2.17
2023-02-25T06:00:39.379Z,2.15
2023-02-25T06:03:06.926Z,2.10
2023-02-25T06:05:34.233Z,1.98
2023-02-25T06:08:01.696Z,1.99
2023-02-25T06:10:28.937Z,2.00
2023-02-25T06:12:56.181Z,1.94
2023-02-25T06:15:23.415Z,2.06
2023-02-25T06:17:50.937Z,2.07
2023-02-25T06:20:18.736Z,2.14
2023-02-25T06:22:45.965Z,2.11
2023-02-25T06:25:13.220Z,2.04
2023-02-25T06:27:40.417Z,2.18
2023-02-25T06:30:08.270Z,2.15
2023-02-25T06:32:35.603Z,2.20
2023-02-25T06:35:02.859Z,2.17
2023-02-25T06:37:30.110Z,2.21
2023-02-25T06:39:57.313Z,2.29
2023-02-25T06:42:24.718Z,2.37
2023-02-25T06:44:51.936Z,2.29
2023-02-25T06:47:19.178Z,2.24
2023-02-25T06:49:46.461Z,2.24
2023-02-25T06:52:13.668Z,2.27
2023-02-25T06:54:40.907Z,2.28
2023-02-25T06:57:08.111Z,2.21
2023-02-25T06:59:35.773Z,2.27
2023-02-25T07:02:03.083Z,2.31
2023-02-25T07:04:30.350Z,2.25
2023-02-25T07:06:57.598Z,2.26
2023-02-25T07:09:24.815Z,2.19
2023-02-25T07:11:52.253Z,2.23
2023-02-25T07:14:19.476Z,2.24
2023-02-25T07:16:46.749Z,2.29
2023-02-25T07:19:16.524Z,2.11
2023-02-25T07:21:44.473Z,2.18
2023-02-25T07:24:12.394Z,2.20
2023-02-25T07:26:39.927Z,2.10
2023-02-25T07:29:07.169Z,2.06
2023-02-25T07:31:34.595Z,2.09
2023-02-25T07:34:03.654Z,2.10
2023-02-25T07:36:37.576Z,2.14
2023-02-25T07:39:06.774Z,2.21
2023-02-25T07:41:34.223Z,2.26
2023-02-25T07:44:02.212Z,2.19
2023-02-25T07:46:30.539Z,2.38
2023-02-25T07:48:57.930Z,2.42
2023-02-25T07:51:26.140Z,2.40
2023-02-25T07:53:55.620Z,2.37
2023-02-25T07:56:24.188Z,2.36
2023-02-25T07:58:51.476Z,2.36
2023-02-25T08:01:31.757Z,2.45
2023-02-25T08:04:04.280Z,2.45
2023-02-25T08:06:32.419Z,2.39
2023-02-25T08:08:59.622Z,2.31
2023-02-25T08:11:27.860Z,2.29
2023-02-25T08:13:55.316Z,2.42
2023-02-25T08:16:22.822Z,2.39
2023-02-25T08:18:50.498Z,2.43
2023-02-25T08:21:21.751Z,2.39
2023-02-25T08:23:52.476Z,2.38
2023-02-25T08:26:22.351Z,2.37
2023-02-25T08:28:50.138Z,2.50
2023-02-25T08:31:17.984Z,2.40
2023-02-25T08:33:52.601Z,2.48
2023-02-25T08:36:22.955Z,2.52
2023-02-25T08:38:51.538Z,2.47
2023-02-25T08:41:20.711Z,2.36
2023-02-25T08:43:49.275Z,2.28
2023-02-25T08:46:16.551Z,2.28
2023-02-25T08:48:45.130Z,2.21
2023-02-25T08:51:12.387Z,2.27
2023-02-25T08:53:40.722Z,2.31
2023-02-25T08:56:09.888Z,2.31
2023-02-25T08:58:38.550Z,2.47
2023-02-25T09:01:13.310Z,2.47
2023-02-25T09:03:53.604Z,2.52
2023-02-25T09:06:23.661Z,2.45
2023-02-25T09:08:51.704Z,2.32
2023-02-25T09:11:19.651Z,2.24
2023-02-25T09:13:46.876Z,2.38
2023-02-25T09:16:17.982Z,2.33
2023-02-25T09:18:46.308Z,2.35
2023-02-25T09:21:14.376Z,2.39
2023-02-25T09:23:42.226Z,2.29
2023-02-25T09:26:09.570Z,2.34
2023-02-25T09:28:37.085Z,2.49
2023-02-25T09:31:06.913Z,2.38
2023-02-25T09:33:36.042Z,2.46
2023-02-25T09:36:11.147Z,2.51
2023-02-25T09:38:39.835Z,2.62
2023-02-25T09:41:25.027Z,2.65
2023-02-25T09:44:01.271Z,2.57
2023-02-25T09:46:30.491Z,2.64
2023-02-25T09:49:05.780Z,2.49
2023-02-25T09:51:43.025Z,2.61
2023-02-25T09:54:24.661Z,2.60
2023-02-25T09:56:55.026Z,2.62
2023-02-25T09:59:22.347Z,2.66
2023-02-25T10:01:52.035Z,2.63
2023-02-25T10:04:39.094Z,2.68
2023-02-25T10:07:29.873Z,2.55
2023-02-25T10:10:13.622Z,2.60
2023-02-25T10:13:08.239Z,2.88
2023-02-25T10:15:57.254Z,3.00
2023-02-25T10:18:51.791Z,3.02
2023-02-25T10:21:38.344Z,3.24
2023-02-25T10:24:44.493Z,3.33
2023-02-25T10:27:45.805Z,3.52
2023-02-25T10:30:13.437Z,3.49
2023-02-25T10:32:42.880Z,3.63
2023-02-25T10:35:26.148Z,3.68
2023-02-25T10:37:53.410Z,3.26
2023-02-25T10:40:24.474Z,3.17
2023-02-25T10:42:57.236Z,3.10
2023-02-25T10:45:29.162Z,3.22
2023-02-25T10:48:32.485Z,3.34
2023-02-25T10:51:12.725Z,3.59
2023-02-25T10:53:41.949Z,3.63
2023-02-25T10:56:10.698Z,3.62
2023-02-25T10:58:46.924Z,3.72
2023-02-25T11:01:16.071Z,3.92
2023-02-25T11:03:54.288Z,4.07
2023-02-25T11:06:42.664Z,4.10
2023-02-25T11:09:23.279Z,3.95
2023-02-25T11:12:18.952Z,4.09
2023-02-25T11:14:46.441Z,4.24
2023-02-25T11:17:20.240Z,3.88
2023-02-25T11:19:59.789Z,3.62
2023-02-25T11:22:37.928Z,3.20
2023-02-25T11:25:16.195Z,3.30
2023-02-25T11:27:45.771Z,3.15
2023-02-25T11:30:17.998Z,3.15
2023-02-25T11:32:48.668Z,3.34
2023-02-25T11:35:19.875Z,3.21
2023-02-25T11:37:48.475Z,3.08
2023-02-25T11:40:28.136Z,3.11
2023-02-25T11:43:18.624Z,3.42
2023-02-25T11:46:01.579Z,3.25
2023-02-25T11:48:50.157Z,3.15
2023-02-25T11:51:27.041Z,2.76
2023-02-25T11:54:01.209Z,2.63
2023-02-25T11:56:44.966Z,2.49
2023-02-25T11:59:54.120Z,2.47
2023-02-25T12:02:30.553Z,2.38
2023-02-25T12:05:20.366Z,2.50
2023-02-25T12:08:18.007Z,2.53
2023-02-25T12:11:09.732Z,2.61
2023-02-25T12:14:15.039Z,2.85
2023-02-25T12:17:21.594Z,2.97
2023-02-25T12:20:31.680Z,3.00
2023-02-25T12:23:17.555Z,2.63
2023-02-25T12:26:14.112Z,2.35
2023-02-25T12:28:45.623Z,2.19
2023-02-25T12:31:50.956Z,2.20
2023-02-25T12:34:39.730Z,2.43
2023-02-25T12:37:29.812Z,2.51
2023-02-25T12:40:20.391Z,2.61
2023-02-25T12:43:07.319Z,2.58
2023-02-25T12:45:34.610Z,2.64
2023-02-25T12:48:20.373Z,2.62
2023-02-25T12:51:23.110Z,2.61
2023-02-25T12:54:04.304Z,2.63
2023-02-25T12:56:53.362Z,2.40
2023-02-25T12:59:46.101Z,2.22
2023-02-25T13:02:38.319Z,2.36
2023-02-25T13:05:20.711Z,2.40
2023-02-25T13:08:10.549Z,2.43
2023-02-25T13:10:51.289Z,2.47
2023-02-25T13:13:55.822Z,2.58
2023-02-25T13:16:49.569Z,2.44
2023-02-25T13:19:41.017Z,2.20
2023-02-25T13:22:49.196Z,2.36
2023-02-25T13:25:46.327Z,2.34
2023-02-25T13:28:32.957Z,2.29
2023-02-25T13:31:24.710Z,2.13
2023-02-25T13:34:28.949Z,1.94
2023-02-25T13:37:21.636Z,1.88
2023-02-25T13:40:02.411Z,1.88
2023-02-25T13:43:13.685Z,1.81
2023-02-25T13:45:56.480Z,1.94
2023-02-25T13:48:49.783Z,2.08
2023-02-25T13:55:04.474Z,2.15
2023-02-25T13:58:17.853Z,1.99
2023-02-25T14:01:16.810Z,2.01
2023-02-25T14:04:19.569Z,2.05
2023-02-25T14:07:20.159Z,2.10
2023-02-25T14:10:19.028Z,2.18
2023-02-25T14:13:34.488Z,2.04
2023-02-25T14:16:43.205Z,2.07
2023-02-25T14:19:27.046Z,2.03
2023-02-25T14:22:31.465Z,2.04
2023-02-25T14:25:27.995Z,2.10
2023-02-25T14:28:22.754Z,2.16
2023-02-25T14:31:14.454Z,2.21
2023-02-25T14:34:08.016Z,2.19
2023-02-25T14:36:48.104Z,2.21
2023-02-25T14:39:36.405Z,2.17
2023-02-25T14:42:23.839Z,2.18
2023-02-25T14:45:08.831Z,2.24
2023-02-25T14:47:40.010Z,2.24
2023-02-25T14:50:18.590Z,2.20
2023-02-25T14:53:00.586Z,2.14
2023-02-25T14:55:52.536Z,2.19
2023-02-25T14:58:47.231Z,2.26
2023-02-25T15:01:37.138Z,2.28
2023-02-25T15:04:19.811Z,2.17
2023-02-25T15:07:23.075Z,2.13
2023-02-25T15:10:18.619Z,1.99
2023-02-25T15:12:58.872Z,2.12
2023-02-25T15:16:00.971Z,2.17
2023-02-25T15:18:49.222Z,2.21
2023-02-25T15:21:44.029Z,2.13
2023-02-25T15:24:40.991Z,1.99
2023-02-25T15:27:33.141Z,2.03
2023-02-25T15:30:09.108Z,1.81
2023-02-25T15:33:17.699Z,1.89
2023-02-25T15:35:53.645Z,1.90
2023-02-25T15:38:38.394Z,1.78
2023-02-25T15:41:29.650Z,1.70
2023-02-25T15:44:13.004Z,1.74
2023-02-25T15:46:45.552Z,1.73
2023-02-25T15:49:34.879Z,1.61
2023-02-25T15:52:04.653Z,1.51
2023-02-25T15:54:47.112Z,1.61
2023-02-25T15:57:23.415Z,1.57
2023-02-25T15:59:58.224Z,1.50
2023-02-25T16:02:34.773Z,1.38
2023-02-25T16:05:18.802Z,1.30
2023-02-25T16:07:49.322Z,1.29
2023-02-25T16:10:21.998Z,1.24
2023-02-25T16:12:50.876Z,1.25
2023-02-25T16:15:40.684Z,1.21
2023-02-25T16:18:34.840Z,1.13
2023-02-25T16:21:07.640Z,1.21
2023-02-25T16:23:41.492Z,1.09
2023-02-25T16:26:44.675Z,1.04
2023-02-25T16:29:36.858Z,1.04
2023-02-25T16:32:49.383Z,0.92
2023-02-25T16:35:24.638Z,0.90
2023-02-25T16:38:18.819Z,0.87
2023-02-25T16:40:46.784Z,0.85
2023-02-25T16:43:22.231Z,0.91
2023-02-25T16:46:01.611Z,0.89
2023-02-25T16:48:39.704Z,0.86
2023-02-25T16:51:12.700Z,0.80
2023-02-25T16:53:45.326Z,0.76
2023-02-25T16:56:20.027Z,0.77
2023-02-25T16:59:05.402Z,0.91
2023-02-25T17:01:34.685Z,0.95
2023-02-25T17:04:03.671Z,0.72
2023-02-25T17:06:30.951Z,0.67
2023-02-25T17:08:58.237Z,0.74
2023-02-25T17:11:26.420Z,0.75
2023-02-25T17:14:03.791Z,0.72
2023-02-25T17:16:36.817Z,0.78
2023-02-25T17:19:06.815Z,0.67
2023-02-25T17:21:39.588Z,0.68
2023-02-25T17:24:11.751Z,0.67
2023-02-25T17:26:44.410Z,0.60
2023-02-25T17:29:14.573Z,0.55
2023-02-25T17:31:52.035Z,0.65
2023-02-25T17:34:30.109Z,0.65
2023-02-25T17:37:04.603Z,0.75
2023-02-25T17:39:32.527Z,0.70
2023-02-25T17:42:01.663Z,0.66
2023-02-25T17:44:39.897Z,0.65
2023-02-25T17:47:10.123Z,0.75
2023-02-25T17:49:39.246Z,0.81
2023-02-25T17:52:26.976Z,0.76
2023-02-25T17:55:21.765Z,0.63
2023-02-25T17:57:48.999Z,0.60
2023-02-25T18:00:24.018Z,0.63
2023-02-25T18:03:17.246Z,0.62
2023-02-25T18:06:02.716Z,0.60
2023-02-25T18:08:30.071Z,0.60
2023-02-25T18:11:32.933Z,0.63
2023-02-25T18:14:05.150Z,0.57
2023-02-25T18:16:45.228Z,0.40
2023-02-25T18:19:31.805Z,0.56
2023-02-25T18:21:59.957Z,0.51
2023-02-25T18:24:33.464Z,0.44
2023-02-25T18:27:20.472Z,0.57
2023-02-25T18:29:48.172Z,0.58
2023-02-25T18:32:16.096Z,0.40
2023-02-25T18:34:43.497Z,0.37
2023-02-25T18:37:14.769Z,0.42
2023-02-25T18:39:42.070Z,0.30
2023-02-25T18:42:15.040Z,0.37
2023-02-25T18:44:43.269Z,0.37
2023-02-25T18:47:10.542Z,0.35
2023-02-25T18:49:38.255Z,0.22
2023-02-25T18:52:11.576Z,0.25
2023-02-25T18:54:38.861Z,0.25
2023-02-25T18:57:22.166Z,0.14
2023-02-25T18:59:49.454Z,0.16
2023-02-25T19:02:37.130Z,0.37
2023-02-25T19:05:06.775Z,0.30
2023-02-25T19:07:41.468Z,0.25
2023-02-25T19:10:09.244Z,0.28
2023-02-25T19:12:36.837Z,0.28
2023-02-25T19:15:11.578Z,0.25
2023-02-25T19:17:38.857Z,0.27
2023-02-25T19:20:07.017Z,0.30
2023-02-25T19:22:34.337Z,0.23
2023-02-25T19:25:01.577Z,0.25
2023-02-25T19:27:30.437Z,0.32
2023-02-25T19:29:59.133Z,0.22
2023-02-25T19:32:26.839Z,0.20
2023-02-25T19:34:54.049Z,0.26
2023-02-25T19:37:21.348Z,0.31
2023-02-25T19:39:48.667Z,0.19
2023-02-25T19:42:16.303Z,0.21
2023-02-25T19:44:43.897Z,0.22
2023-02-25T19:47:11.261Z,0.30
2023-02-25T19:49:38.543Z,0.32
2023-02-25T19:52:05.891Z,0.25
2023-02-25T19:54:35.261Z,0.17
2023-02-25T19:57:04.037Z,0.18
2023-02-25T19:59:31.661Z,0.11
2023-02-25T20:01:59.236Z,0.18
2023-02-25T20:04:26.710Z,0.16
2023-02-25T20:06:55.503Z,0.12
2023-02-25T20:09:22.740Z,0.22
2023-02-25T20:11:51.545Z,0.32
2023-02-25T20:14:24.470Z,0.40
2023-02-25T20:16:54.042Z,0.30
2023-02-25T20:19:29.096Z,0.36
2023-02-25T20:21:58.202Z,0.22
2023-02-25T20:24:25.537Z,0.26
2023-02-25T20:26:52.969Z,0.25
2023-02-25T20:29:20.370Z,0.29
2023-02-25T20:31:47.869Z,0.19
2023-02-25T20:34:19.142Z,0.22
2023-02-25T20:37:18.855Z,0.28
2023-02-25T20:39:49.620Z,0.32
2023-02-25T20:42:20.653Z,0.33
2023-02-25T20:44:51.248Z,0.27
2023-02-25T20:47:26.357Z,0.27
2023-02-25T20:49:54.942Z,0.30
2023-02-25T20:52:23.570Z,0.34
2023-02-25T20:54:50.799Z,0.26
2023-02-25T20:57:21.263Z,0.26
2023-02-25T20:59:49.604Z,0.05
2023-02-25T21:02:18.478Z,0.04
2023-02-25T21:04:46.202Z,-0.01
2023-02-25T21:07:20.697Z,0.11
2023-02-25T21:09:48.177Z,0.19
2023-02-25T21:12:15.405Z,0.01
2023-02-25T21:14:42.660Z,-0.15
2023-02-25T21:17:13.635Z,-0.05
2023-02-25T21:19:41.293Z,-0.11
2023-02-25T21:22:09.546Z,-0.15
2023-02-25T21:24:37.107Z,-0.05
2023-02-25T21:27:04.728Z,-0.04
2023-02-25T21:29:32.576Z,0.03
2023-02-25T21:31:59.861Z,0.04
2023-02-25T21:34:27.129Z,0.03
2023-02-25T21:36:57.677Z,-0.10
2023-02-25T21:39:26.615Z,0.01
2023-02-25T21:41:54.162Z,0.02
2023-02-25T21:44:22.133Z,0.13
2023-02-25T21:46:54.970Z,0.10
2023-02-25T21:49:22.652Z,0.08
2023-02-25T21:51:51.245Z,0.01
2023-02-25T21:54:18.489Z,0.14
2023-02-25T21:56:45.967Z,0.21
2023-02-25T21:59:13.423Z,0.18
2023-02-25T22:01:42.365Z,0.19
2023-02-25T22:04:09.934Z,0.09
2023-02-25T22:06:37.425Z,0.04
2023-02-25T22:09:07.144Z,0.00
2023-02-25T22:11:35.986Z,0.04
2023-02-25T22:14:10.284Z,0.07
2023-02-25T22:16:42.913Z,-0.03
2023-02-25T22:19:11.219Z,0.05
2023-02-25T22:21:38.510Z,-0.01
2023-02-25T22:24:06.270Z,0.02
2023-02-25T22:26:35.079Z,0.13
2023-02-25T22:29:05.560Z,0.05
2023-02-25T22:31:34.096Z,0.04
2023-02-25T22:34:02.148Z,-0.07
2023-02-25T22:36:29.528Z,0.04
2023-02-25T22:38:56.765Z,-0.09
2023-02-25T22:41:29.204Z,-0.03
2023-02-25T22:43:57.948Z,-0.11
2023-02-25T22:46:28.306Z,-0.16
2023-02-25T22:48:56.319Z,-0.15
2023-02-25T22:51:29.138Z,-0.12
2023-02-25T22:53:56.918Z,-0.16
2023-02-25T22:56:24.695Z,-0.11
2023-02-25T22:58:52.472Z,-0.10
2023-02-25T23:01:22.089Z,-0.18
2023-02-25T23:03:50.416Z,-0.31
2023-02-25T23:06:19.465Z,-0.24
2023-02-25T23:08:46.876Z,-0.37
2023-02-25T23:11:19.803Z,-0.23
2023-02-25T23:13:49.430Z,-0.19
2023-02-25T23:16:18.928Z,-0.28
2023-02-25T23:18:46.978Z,-0.10
2023-02-25T23:21:19.633Z,-0.06
2023-02-25T23:23:48.535Z,-0.12
2023-02-25T23:26:17.507Z,-0.04
2023-02-25T23:28:45.138Z,-0.09
2023-02-25T23:31:41.437Z,-0.05
2023-02-25T23:34:11.453Z,-0.13
2023-02-25T23:36:40.049Z,-0.30
2023-02-25T23:39:08.191Z,-0.20
2023-02-25T23:41:36.522Z,-0.19
2023-02-25T23:44:04.865Z,-0.25
2023-02-25T23:46:32.602Z,-0.29
2023-02-25T23:49:03.249Z,-0.29
2023-02-25T23:51:30.975Z,-0.40
2023-02-25T23:54:00.632Z,-0.54
2023-02-25T23:56:29.586Z,-0.61
2023-02-25T23:58:57.226Z,-0.53
